Time;durP1;ratioP1;P1;durP2;ratioP2;P2;SDS_P1;SDS_P2;PMS_P1;PMS_P2;Temp;Humidity;BMP_temperature;BMP_pressure;BME280_temperature;BME280_humidity;BME280_pressure;Samples;Min_cycle;Max_cycle;Signal;HPM_P1;HPM_P2
2022/07/09 00:00:11;;;;;;;18.95;8.63;;;16.40;99.90;;;;;;5034725;28;20029;-56
2022/07/09 00:02:37;;;;;;;17.98;9.52;;;16.30;99.90;;;;;;5052010;28;20146;-57
2022/07/09 00:05:04;;;;;;;15.48;8.32;;;16.40;99.90;;;;;;5052160;28;20127;-56
2022/07/09 00:07:30;;;;;;;13.50;8.23;;;16.30;99.90;;;;;;5052230;28;20037;-56
2022/07/09 00:09:55;;;;;;;16.02;8.55;;;16.40;99.90;;;;;;5052080;28;20079;-54
2022/07/09 00:12:21;;;;;;;16.80;8.90;;;16.30;99.90;;;;;;5052258;28;20122;-56
2022/07/09 00:14:47;;;;;;;16.13;9.32;;;16.30;99.90;;;;;;5052031;28;20126;-57
2022/07/09 00:17:13;;;;;;;12.73;7.10;;;16.30;99.90;;;;;;5052289;28;20045;-56
2022/07/09 00:19:38;;;;;;;17.00;10.02;;;16.40;99.90;;;;;;5052369;28;20052;-56
2022/07/09 00:22:05;;;;;;;17.90;8.50;;;16.40;99.90;;;;;;5051947;28;20048;-56
2022/07/09 00:24:31;;;;;;;15.35;8.70;;;16.30;99.90;;;;;;5051926;28;20045;-57
2022/07/09 00:26:57;;;;;;;15.45;7.93;;;16.30;99.90;;;;;;5052265;28;20110;-56
2022/07/09 00:29:23;;;;;;;17.05;8.85;;;16.30;99.90;;;;;;5052275;28;20045;-57
2022/07/09 00:31:49;;;;;;;13.90;7.70;;;16.40;99.90;;;;;;5051858;28;20048;-56
2022/07/09 00:34:14;;;;;;;15.73;9.02;;;16.40;99.90;;;;;;5050968;28;20094;-56
2022/07/09 00:36:40;;;;;;;19.10;8.25;;;16.40;99.90;;;;;;5052090;28;20052;-56
2022/07/09 00:39:06;;;;;;;15.52;8.60;;;16.40;99.90;;;;;;5052260;28;20052;-57
2022/07/09 00:41:31;;;;;;;16.42;8.63;;;16.20;99.90;;;;;;5052095;28;20073;-56
2022/07/09 00:43:57;;;;;;;19.50;8.85;;;16.10;99.90;;;;;;5051926;28;20048;-56
2022/07/09 00:46:23;;;;;;;18.95;9.05;;;16.10;99.90;;;;;;5052099;28;20037;-57
2022/07/09 00:48:48;;;;;;;21.10;10.13;;;16.10;99.90;;;;;;5052055;28;20044;-56
2022/07/09 00:51:16;;;;;;;17.33;8.20;;;16.10;99.90;;;;;;5055692;28;20481;-56
2022/07/09 00:53:42;;;;;;;16.08;8.43;;;16.10;99.90;;;;;;5037948;28;20067;-56
2022/07/09 00:56:08;;;;;;;13.80;8.48;;;16.20;99.90;;;;;;5055750;28;20346;-56
2022/07/09 00:58:36;;;;;;;17.60;8.98;;;16.20;99.90;;;;;;5055942;28;20051;-57
2022/07/09 01:01:02;;;;;;;14.35;7.75;;;16.20;99.90;;;;;;5037473;28;20074;-56
2022/07/09 01:03:27;;;;;;;18.17;9.18;;;16.30;99.90;;;;;;5055542;28;20057;-56
2022/07/09 01:05:55;;;;;;;18.10;8.10;;;16.30;99.90;;;;;;5037714;28;20051;-57
2022/07/09 01:08:21;;;;;;;18.48;8.52;;;16.40;99.90;;;;;;5055658;28;20396;-56
2022/07/09 01:10:48;;;;;;;17.83;8.90;;;16.30;99.90;;;;;;5055295;28;20041;-57
2022/07/09 01:13:14;;;;;;;21.17;9.10;;;16.40;99.90;;;;;;5055500;28;20517;-56
2022/07/09 01:15:40;;;;;;;21.02;9.23;;;16.40;99.90;;;;;;5037456;28;20040;-57
2022/07/09 01:18:10;;;;;;;15.07;8.27;;;16.30;99.90;;;;;;5055486;28;20044;-57
2022/07/09 01:20:36;;;;;;;19.92;8.07;;;16.30;99.90;;;;;;5055080;28;20037;-57
2022/07/09 01:23:01;;;;;;;18.95;8.25;;;16.30;99.90;;;;;;5055155;28;20075;-56
2022/07/09 01:25:39;;;;;;;14.73;8.68;;;16.40;99.90;;;;;;5055429;28;20098;-56
2022/07/09 01:28:07;;;;;;;21.88;7.50;;;16.40;99.90;;;;;;5055152;28;20505;-57
2022/07/09 01:30:34;;;;;;;23.35;10.45;;;16.40;99.90;;;;;;5055150;28;20370;-56
2022/07/09 01:33:00;;;;;;;15.60;8.20;;;16.40;99.90;;;;;;5054971;28;20512;-56
2022/07/09 01:35:26;;;;;;;16.40;7.63;;;16.40;99.90;;;;;;5055028;28;20037;-57
2022/07/09 01:37:53;;;;;;;16.30;8.43;;;16.40;99.90;;;;;;5055159;28;20033;-56
2022/07/09 01:40:19;;;;;;;23.33;9.13;;;16.40;99.90;;;;;;5055200;28;20354;-57
2022/07/09 01:42:46;;;;;;;17.23;8.88;;;16.40;99.90;;;;;;5054950;28;20420;-57
2022/07/09 01:45:12;;;;;;;15.02;8.13;;;16.30;99.90;;;;;;5054962;28;20422;-56
2022/07/09 01:47:38;;;;;;;19.65;8.43;;;16.40;99.90;;;;;;5054664;28;20075;-56
2022/07/09 01:50:04;;;;;;;19.67;8.68;;;16.30;99.90;;;;;;5054647;28;20128;-56
2022/07/09 01:52:30;;;;;;;15.77;8.20;;;16.40;99.90;;;;;;5054631;28;20045;-57
2022/07/09 01:54:56;;;;;;;16.02;7.63;;;16.40;99.90;;;;;;5054802;28;20055;-57
2022/07/09 01:57:22;;;;;;;13.43;6.85;;;16.40;99.90;;;;;;5054473;28;20048;-56
2022/07/09 01:59:47;;;;;;;13.73;6.50;;;16.40;99.90;;;;;;5036250;28;20049;-56
2022/07/09 02:02:13;;;;;;;15.52;7.05;;;16.40;99.90;;;;;;5053932;28;20040;-56
2022/07/09 02:04:39;;;;;;;13.75;7.68;;;16.40;99.90;;;;;;5054076;28;20056;-56
2022/07/09 02:07:05;;;;;;;19.13;6.68;;;16.30;99.90;;;;;;5036886;28;20045;-56
2022/07/09 02:09:30;;;;;;;16.95;7.43;;;16.40;99.90;;;;;;5054760;28;20114;-56
2022/07/09 02:11:56;;;;;;;15.48;6.30;;;16.30;99.90;;;;;;5054174;28;20071;-56
2022/07/09 02:14:22;;;;;;;14.68;6.97;;;16.50;99.90;;;;;;5054358;28;20048;-56
2022/07/09 02:16:48;;;;;;;21.05;7.85;;;16.40;99.90;;;;;;5054416;28;20041;-56
2022/07/09 02:19:14;;;;;;;18.13;7.05;;;16.40;99.90;;;;;;5054530;28;20060;-57
2022/07/09 02:21:40;;;;;;;15.13;6.53;;;16.30;99.90;;;;;;5054123;28;20076;-56
2022/07/09 02:24:06;;;;;;;13.10;6.22;;;16.30;99.90;;;;;;5054160;28;20045;-55
2022/07/09 02:26:32;;;;;;;13.25;6.43;;;16.30;99.90;;;;;;5054083;28;20389;-56
2022/07/09 02:28:59;;;;;;;16.20;7.10;;;16.30;99.90;;;;;;5054293;28;20085;-56
2022/07/09 02:31:26;;;;;;;17.17;6.10;;;16.40;99.90;;;;;;5054225;28;20465;-56
2022/07/09 02:33:52;;;;;;;13.10;6.15;;;16.40;99.90;;;;;;5054094;28;20420;-57
2022/07/09 02:36:18;;;;;;;16.02;5.68;;;16.40;99.90;;;;;;5052939;28;20037;-55
2022/07/09 02:38:43;;;;;;;11.82;5.97;;;16.40;99.90;;;;;;5054113;28;20047;-55
2022/07/09 02:41:09;;;;;;;11.77;5.15;;;16.30;99.90;;;;;;5053630;28;20076;-57
2022/07/09 02:43:35;;;;;;;12.93;5.72;;;16.30;99.90;;;;;;5053673;28;20075;-56
2022/07/09 02:46:01;;;;;;;13.40;5.57;;;16.40;99.90;;;;;;5069271;28;20048;-56
2022/07/09 02:48:27;;;;;;;14.95;5.97;;;16.30;99.90;;;;;;5053748;28;20098;-56
2022/07/09 02:50:53;;;;;;;13.63;5.95;;;16.40;99.90;;;;;;5053457;28;20077;-57
2022/07/09 02:53:19;;;;;;;16.02;6.70;;;16.20;99.90;;;;;;5053517;28;20102;-56
2022/07/09 02:55:45;;;;;;;18.00;5.97;;;16.20;99.90;;;;;;5035769;28;20109;-56
2022/07/09 02:58:12;;;;;;;14.73;6.20;;;16.20;99.90;;;;;;5053407;28;20696;-56
2022/07/09 03:00:41;;;;;;;14.80;5.00;;;16.30;99.90;;;;;;5053174;28;20041;-56
2022/07/09 03:03:07;;;;;;;11.48;5.70;;;16.30;99.90;;;;;;5053479;28;20084;-55
2022/07/09 03:05:34;;;;;;;13.93;6.13;;;16.10;99.90;;;;;;5053277;28;20064;-56
2022/07/09 03:08:00;;;;;;;15.10;6.10;;;16.20;99.90;;;;;;5053268;28;20080;-56
2022/07/09 03:10:26;;;;;;;13.63;6.53;;;16.30;99.90;;;;;;5053175;28;20037;-56
2022/07/09 03:12:52;;;;;;;13.43;6.00;;;16.30;99.90;;;;;;5052249;28;20040;-56
2022/07/09 03:15:17;;;;;;;13.57;5.82;;;16.20;99.90;;;;;;5053294;28;20101;-56
2022/07/09 03:17:44;;;;;;;14.18;5.82;;;16.20;99.90;;;;;;5053307;28;20064;-56
2022/07/09 03:20:10;;;;;;;13.02;5.75;;;16.20;99.90;;;;;;5053264;28;20111;-56
2022/07/09 03:22:36;;;;;;;12.57;5.82;;;16.10;99.90;;;;;;5053179;28;20049;-57
2022/07/09 03:25:03;;;;;;;16.13;6.00;;;16.20;99.90;;;;;;5052839;28;20791;-57
2022/07/09 03:27:29;;;;;;;14.30;6.47;;;16.10;99.90;;;;;;5053100;28;20040;-57
2022/07/09 03:29:55;;;;;;;13.75;6.82;;;16.00;99.90;;;;;;5052814;28;20048;-55
2022/07/09 03:32:21;;;;;;;14.77;6.97;;;16.00;99.90;;;;;;5052850;28;20140;-56
2022/07/09 03:34:47;;;;;;;17.65;7.22;;;15.90;99.90;;;;;;5052938;28;20045;-57
2022/07/09 03:37:13;;;;;;;14.45;6.93;;;15.90;99.90;;;;;;5051344;28;20045;-56
2022/07/09 03:39:39;;;;;;;16.02;6.85;;;15.90;99.90;;;;;;5052891;28;20131;-56
2022/07/09 03:42:06;;;;;;;15.57;6.45;;;15.80;99.90;;;;;;5052755;28;20041;-56
2022/07/09 03:44:33;;;;;;;16.98;6.82;;;15.90;99.90;;;;;;5052706;28;20096;-56
2022/07/09 03:46:59;;;;;;;15.55;6.25;;;15.80;99.90;;;;;;5052944;28;20037;-56
2022/07/09 03:49:25;;;;;;;11.73;5.80;;;15.90;99.90;;;;;;5051521;28;20125;-56
2022/07/09 03:51:51;;;;;;;16.15;6.68;;;15.80;99.90;;;;;;5052658;28;20497;-57
2022/07/09 03:54:16;;;;;;;15.13;6.38;;;15.70;99.90;;;;;;5052303;28;20045;-57
2022/07/09 03:56:42;;;;;;;16.48;6.80;;;15.80;99.90;;;;;;5052472;28;20041;-56
2022/07/09 03:59:08;;;;;;;14.30;6.20;;;15.80;99.90;;;;;;5052527;28;20399;-56
2022/07/09 04:01:33;;;;;;;16.05;6.45;;;15.80;99.90;;;;;;5034196;28;20098;-56
2022/07/09 04:03:59;;;;;;;15.02;6.32;;;15.80;99.90;;;;;;5052294;28;20047;-56
2022/07/09 04:06:25;;;;;;;13.02;6.68;;;15.80;99.90;;;;;;5034576;28;20132;-56
2022/07/09 04:08:50;;;;;;;12.18;5.85;;;16.00;99.90;;;;;;5052523;28;20384;-56
2022/07/09 04:11:16;;;;;;;12.52;5.25;;;15.90;99.90;;;;;;5052306;28;20565;-57
2022/07/09 04:13:42;;;;;;;12.63;5.65;;;16.00;99.90;;;;;;5052383;28;20420;-55
2022/07/09 04:16:08;;;;;;;15.40;6.60;;;16.00;99.90;;;;;;5052404;28;20043;-56
2022/07/09 04:18:35;;;;;;;15.70;6.97;;;16.00;99.90;;;;;;5052035;28;20120;-55
2022/07/09 04:21:01;;;;;;;14.23;6.57;;;15.90;99.90;;;;;;5051863;28;20052;-57
2022/07/09 04:23:27;;;;;;;14.27;6.20;;;15.90;99.90;;;;;;5051934;28;20048;-56
2022/07/09 04:25:53;;;;;;;15.60;6.65;;;16.00;99.90;;;;;;5052104;28;20055;-56
2022/07/09 04:28:19;;;;;;;17.40;6.57;;;15.90;99.90;;;;;;5034315;28;20107;-56
2022/07/09 04:30:46;;;;;;;11.65;6.00;;;16.00;99.90;;;;;;5052013;28;20129;-56
2022/07/09 04:33:12;;;;;;;13.95;7.00;;;15.90;99.90;;;;;;5051991;28;20350;-57
2022/07/09 04:35:38;;;;;;;13.55;6.60;;;15.90;99.90;;;;;;5051912;28;20102;-56
2022/07/09 04:38:03;;;;;;;14.65;6.38;;;15.90;99.90;;;;;;5051921;28;20083;-56
2022/07/09 04:40:29;;;;;;;16.95;7.00;;;16.00;99.90;;;;;;5051976;28;20048;-56
2022/07/09 04:42:55;;;;;;;13.00;5.85;;;16.10;99.90;;;;;;5051870;28;20049;-57
2022/07/09 04:45:20;;;;;;;11.98;5.90;;;16.00;99.90;;;;;;5051878;28;20048;-56
2022/07/09 04:47:46;;;;;;;10.90;6.30;;;16.10;99.90;;;;;;5052039;28;20033;-57
2022/07/09 04:50:12;;;;;;;13.27;5.75;;;16.20;99.90;;;;;;5051744;28;20412;-57
2022/07/09 04:52:38;;;;;;;14.73;6.30;;;16.20;99.90;;;;;;5051722;28;20052;-56
2022/07/09 04:55:05;;;;;;;12.20;6.13;;;16.10;99.90;;;;;;5052125;28;20362;-55
2022/07/09 04:57:31;;;;;;;13.40;5.80;;;16.30;99.90;;;;;;5052035;28;20110;-55
2022/07/09 05:00:00;;;;;;;11.48;6.20;;;16.20;99.90;;;;;;5052071;28;20033;-56
2022/07/09 05:02:27;;;;;;;12.15;5.80;;;16.40;99.90;;;;;;5033838;28;20049;-56
2022/07/09 05:04:53;;;;;;;11.48;5.72;;;16.40;99.90;;;;;;5051613;28;20098;-56
2022/07/09 05:07:18;;;;;;;10.88;5.63;;;16.40;99.90;;;;;;5033938;28;20486;-56
2022/07/09 05:09:44;;;;;;;13.85;6.55;;;16.40;99.90;;;;;;5051975;28;20456;-57
2022/07/09 05:12:10;;;;;;;15.40;6.80;;;16.30;99.90;;;;;;5051608;28;20044;-56
2022/07/09 05:14:39;;;;;;;9.27;5.65;;;16.50;99.90;;;;;;5051503;28;20055;-56
2022/07/09 05:17:05;;;;;;;12.27;5.70;;;16.40;99.90;;;;;;5051929;28;20366;-56
2022/07/09 05:19:32;;;;;;;14.18;6.07;;;16.40;99.90;;;;;;5033697;28;20061;-56
2022/07/09 05:21:58;;;;;;;14.63;5.57;;;16.50;99.90;;;;;;5051773;28;20041;-55
2022/07/09 05:24:23;;;;;;;11.57;5.55;;;16.50;99.90;;;;;;5051792;28;20466;-57
2022/07/09 05:26:49;;;;;;;11.30;5.65;;;16.60;99.90;;;;;;5051637;28;20075;-57
2022/07/09 05:29:15;;;;;;;12.52;5.45;;;16.50;99.90;;;;;;5033578;28;20068;-56
2022/07/09 05:31:41;;;;;;;13.45;5.88;;;16.60;99.90;;;;;;5051250;28;20487;-56
2022/07/09 05:34:07;;;;;;;12.15;5.85;;;16.60;99.90;;;;;;5051223;28;20040;-56
2022/07/09 05:36:34;;;;;;;11.05;6.10;;;16.80;99.90;;;;;;5053706;28;20152;-57
2022/07/09 05:39:00;;;;;;;12.35;5.07;;;16.70;99.90;;;;;;5054876;28;20037;-57
2022/07/09 05:41:27;;;;;;;11.70;5.63;;;16.80;99.90;;;;;;5055227;28;20385;-56
2022/07/09 05:43:55;;;;;;;14.32;4.90;;;16.60;99.90;;;;;;5055035;28;20041;-55
2022/07/09 05:46:21;;;;;;;12.68;5.30;;;16.80;99.90;;;;;;5055129;28;20059;-56
2022/07/09 05:48:47;;;;;;;11.27;5.20;;;16.70;99.90;;;;;;5053482;28;20447;-56
2022/07/09 05:51:12;;;;;;;11.80;5.22;;;16.80;99.90;;;;;;5054961;28;20405;-56
2022/07/09 05:53:38;;;;;;;14.48;5.45;;;16.80;99.90;;;;;;5054748;28;20047;-57
2022/07/09 05:56:04;;;;;;;9.55;4.30;;;16.80;99.90;;;;;;5054995;28;20033;-57
2022/07/09 05:58:30;;;;;;;12.10;4.78;;;16.80;99.90;;;;;;5054932;28;20068;-57
2022/07/09 06:00:56;;;;;;;11.02;4.45;;;16.80;99.90;;;;;;5054820;28;20481;-55
2022/07/09 06:03:21;;;;;;;13.95;5.18;;;16.90;99.90;;;;;;5054909;28;20037;-57
2022/07/09 06:05:47;;;;;;;10.23;4.82;;;16.90;99.90;;;;;;5054370;28;20079;-57
2022/07/09 06:08:13;;;;;;;12.20;4.75;;;17.00;99.90;;;;;;5036319;28;20057;-57
2022/07/09 06:10:38;;;;;;;10.85;4.78;;;17.10;99.90;;;;;;5054671;28;20029;-58
2022/07/09 06:13:04;;;;;;;13.88;4.63;;;17.00;99.90;;;;;;5054196;28;20041;-56
2022/07/09 06:15:30;;;;;;;10.23;4.82;;;17.10;99.90;;;;;;5054470;28;20226;-57
2022/07/09 06:17:56;;;;;;;10.25;3.97;;;17.20;99.90;;;;;;5020040;28;20087;-55
2022/07/09 06:20:21;;;;;;;10.75;4.05;;;17.20;99.90;;;;;;5054435;28;20464;-57
2022/07/09 06:22:47;;;;;;;9.65;4.18;;;17.10;99.90;;;;;;5052907;28;20049;-57
2022/07/09 06:25:13;;;;;;;10.48;4.68;;;17.20;99.90;;;;;;5054388;28;20047;-57
2022/07/09 06:27:40;;;;;;;11.30;3.90;;;17.10;99.90;;;;;;5054315;28;20037;-57
2022/07/09 06:30:06;;;;;;;10.10;3.78;;;17.20;99.90;;;;;;5054086;28;20116;-57
2022/07/09 06:32:32;;;;;;;6.57;3.05;;;17.20;99.90;;;;;;5054340;28;20052;-57
2022/07/09 06:34:58;;;;;;;9.05;3.67;;;17.30;99.90;;;;;;5053846;28;20048;-57
2022/07/09 06:37:23;;;;;;;10.18;4.05;;;17.30;99.90;;;;;;5054010;28;20049;-56
2022/07/09 06:39:50;;;;;;;10.02;3.38;;;17.30;99.90;;;;;;5053966;28;20409;-57
2022/07/09 06:42:17;;;;;;;8.73;3.28;;;17.30;99.90;;;;;;5053816;28;20052;-57
2022/07/09 06:44:43;;;;;;;12.13;3.25;;;17.30;99.90;;;;;;5053779;28;20036;-56
2022/07/09 06:47:10;;;;;;;11.00;3.20;;;17.30;99.90;;;;;;5053927;28;20720;-56
2022/07/09 06:49:36;;;;;;;8.13;2.88;;;17.30;99.90;;;;;;5053894;28;20029;-56
2022/07/09 06:52:02;;;;;;;7.95;2.97;;;17.30;99.90;;;;;;5044584;28;20401;-57
2022/07/09 06:54:28;;;;;;;10.25;2.70;;;17.40;99.90;;;;;;5036180;28;20094;-57
2022/07/09 06:56:54;;;;;;;9.75;2.58;;;17.50;99.90;;;;;;5053756;28;20045;-56
2022/07/09 06:59:22;;;;;;;8.95;2.70;;;17.50;99.90;;;;;;5035881;28;20052;-56
2022/07/09 07:01:47;;;;;;;8.15;2.55;;;17.60;99.90;;;;;;5053418;28;20055;-56
2022/07/09 07:04:14;;;;;;;10.80;3.28;;;17.60;99.90;;;;;;5053514;28;20041;-56
2022/07/09 07:06:41;;;;;;;7.25;2.40;;;17.60;99.90;;;;;;5052606;28;20103;-56
2022/07/09 07:09:07;;;;;;;12.93;2.80;;;17.70;99.90;;;;;;5052555;28;20485;-57
2022/07/09 07:11:32;;;;;;;9.05;2.40;;;17.60;99.90;;;;;;5052448;28;20047;-56
2022/07/09 07:13:58;;;;;;;11.63;2.70;;;17.70;99.90;;;;;;5052523;28;20052;-57
2022/07/09 07:16:24;;;;;;;11.65;2.42;;;17.80;99.90;;;;;;5052125;28;20079;-57
2022/07/09 07:18:49;;;;;;;8.32;1.88;;;17.70;99.90;;;;;;5052045;28;20045;-56
2022/07/09 07:21:15;;;;;;;8.63;2.05;;;17.70;99.90;;;;;;5040305;28;20087;-57
2022/07/09 07:23:41;;;;;;;11.27;2.25;;;17.80;99.90;;;;;;5050736;28;20041;-57
2022/07/09 07:26:07;;;;;;;7.90;2.30;;;17.80;99.90;;;;;;5052111;28;20041;-57
2022/07/09 07:28:33;;;;;;;10.07;2.17;;;17.80;99.90;;;;;;5051893;28;20048;-57
2022/07/09 07:30:59;;;;;;;9.93;2.55;;;17.70;99.90;;;;;;5052064;28;20045;-57
2022/07/09 07:33:25;;;;;;;9.55;2.40;;;17.90;99.90;;;;;;5051420;28;20036;-57
2022/07/09 07:35:50;;;;;;;8.98;2.30;;;18.10;99.90;;;;;;5051956;28;20049;-57
2022/07/09 07:38:16;;;;;;;7.35;1.85;;;18.20;99.90;;;;;;5067151;28;20053;-56
2022/07/09 07:40:42;;;;;;;8.90;2.10;;;18.30;99.90;;;;;;5050451;28;20507;-56
2022/07/09 07:43:11;;;;;;;9.93;2.35;;;18.20;99.90;;;;;;5050850;28;20128;-56
2022/07/09 07:45:36;;;;;;;10.98;2.70;;;18.10;99.90;;;;;;5052048;28;20055;-56
2022/07/09 07:48:02;;;;;;;7.93;2.45;;;18.10;99.90;;;;;;5051924;28;20037;-56
2022/07/09 07:50:28;;;;;;;9.80;1.98;;;18.10;99.90;;;;;;5051577;28;20158;-57
2022/07/09 07:52:54;;;;;;;9.15;1.88;;;18.10;99.90;;;;;;5034721;28;20053;-57
2022/07/09 07:55:20;;;;;;;9.80;2.10;;;18.30;99.90;;;;;;5051824;28;20049;-56
2022/07/09 07:57:45;;;;;;;9.00;2.25;;;18.30;99.90;;;;;;5051195;28;20037;-57
2022/07/09 08:00:11;;;;;;;8.70;2.08;;;18.20;99.90;;;;;;5050725;28;20094;-56
2022/07/09 08:02:37;;;;;;;9.50;2.13;;;18.10;99.90;;;;;;5030237;28;20047;-57
2022/07/09 08:05:03;;;;;;;10.52;2.40;;;18.00;99.90;;;;;;5045502;28;20080;-56
2022/07/09 08:07:29;;;;;;;8.27;2.13;;;18.20;99.90;;;;;;5038073;28;20038;-56
2022/07/09 08:09:54;;;;;;;7.90;2.50;;;18.50;99.90;;;;;;5042481;28;20040;-56
2022/07/09 08:12:20;;;;;;;9.05;2.78;;;18.50;99.90;;;;;;5043688;28;20120;-56
2022/07/09 08:14:46;;;;;;;10.55;2.60;;;18.50;99.90;;;;;;5040811;28;20090;-56
2022/07/09 08:17:11;;;;;;;10.00;3.17;;;18.50;99.90;;;;;;5046826;28;20033;-56
2022/07/09 08:19:37;;;;;;;8.68;2.00;;;18.40;99.90;;;;;;5051033;28;20047;-56
2022/07/09 08:22:03;;;;;;;10.45;2.22;;;18.50;99.90;;;;;;5050872;28;20048;-56
2022/07/09 08:24:29;;;;;;;8.02;2.35;;;18.40;99.90;;;;;;5051739;28;20083;-56
2022/07/09 08:26:54;;;;;;;11.70;2.20;;;18.30;99.90;;;;;;5052000;28;20037;-56
2022/07/09 08:29:20;;;;;;;10.05;1.90;;;18.50;99.90;;;;;;5052292;28;20041;-57
2022/07/09 08:31:49;;;;;;;9.25;2.15;;;18.50;99.90;;;;;;5052224;28;20076;-56
2022/07/09 08:34:15;;;;;;;8.68;2.28;;;18.60;99.90;;;;;;5051930;28;20049;-57
2022/07/09 08:36:41;;;;;;;9.25;1.92;;;18.80;99.90;;;;;;5051859;28;20053;-57
2022/07/09 08:39:07;;;;;;;9.82;2.30;;;19.00;99.90;;;;;;5050927;28;20037;-57
2022/07/09 08:41:32;;;;;;;9.27;2.40;;;18.70;99.90;;;;;;5052057;28;20080;-56
2022/07/09 08:43:59;;;;;;;7.70;2.13;;;19.00;99.90;;;;;;5051876;28;20485;-57
2022/07/09 08:46:24;;;;;;;8.93;2.38;;;19.10;99.90;;;;;;5052070;28;20048;-56
2022/07/09 08:48:50;;;;;;;9.63;1.98;;;18.50;99.90;;;;;;5052141;28;20049;-57
2022/07/09 08:51:17;;;;;;;8.30;2.10;;;18.50;99.90;;;;;;5065660;28;20033;-55
2022/07/09 08:53:44;;;;;;;9.48;2.22;;;18.60;99.90;;;;;;5052110;28;20044;-56
2022/07/09 08:56:11;;;;;;;9.77;2.42;;;18.60;99.90;;;;;;5033909;28;20106;-56
2022/07/09 08:58:38;;;;;;;9.02;2.05;;;18.90;99.90;;;;;;5051957;28;20110;-57
2022/07/09 09:01:05;;;;;;;6.07;1.85;;;19.30;99.90;;;;;;5051490;28;20049;-56
2022/07/09 09:03:30;;;;;;;6.25;2.55;;;19.50;99.90;;;;;;5051600;28;20049;-56
2022/07/09 09:06:14;;;;;;;8.82;1.88;;;19.60;99.90;;;;;;5051516;28;20061;-57
2022/07/09 09:08:44;;;;;;;8.63;2.30;;;19.60;99.90;;;;;;5051741;28;20116;-57
2022/07/09 09:11:22;;;;;;;8.68;2.40;;;19.40;99.90;;;;;;5053763;28;20045;-56
2022/07/09 09:13:49;;;;;;;6.43;1.88;;;19.20;99.90;;;;;;5055640;28;20044;-56
2022/07/09 09:16:17;;;;;;;7.28;2.00;;;19.20;99.90;;;;;;5055461;28;20052;-58
2022/07/09 09:18:44;;;;;;;8.45;2.60;;;19.20;99.90;;;;;;5055476;28;20047;-57
2022/07/09 09:21:11;;;;;;;10.43;2.60;;;19.30;99.90;;;;;;5055423;28;20076;-56
2022/07/09 09:23:48;;;;;;;9.82;3.17;;;19.00;99.90;;;;;;5055520;28;20050;-56
2022/07/09 09:26:19;;;;;;;9.88;2.42;;;19.20;99.90;;;;;;5054951;28;20048;-56
2022/07/09 09:28:55;;;;;;;10.60;2.45;;;19.00;99.90;;;;;;5055308;28;20037;-57
2022/07/09 09:31:33;;;;;;;7.40;2.28;;;18.90;99.90;;;;;;5054804;28;20053;-57
2022/07/09 09:34:15;;;;;;;7.75;2.00;;;18.80;99.90;;;;;;5047974;28;20069;-57
2022/07/09 09:36:52;;;;;;;6.75;1.92;;;18.90;99.90;;;;;;5045744;28;20556;-56
2022/07/09 09:39:19;;;;;;;13.93;1.92;;;19.00;99.90;;;;;;5034265;28;20389;-57
2022/07/09 09:41:55;;;;;;;9.68;2.00;;;18.90;99.90;;;;;;5054729;28;20119;-58
2022/07/09 09:44:25;;;;;;;8.40;2.13;;;19.00;99.90;;;;;;5043636;28;20045;-56
2022/07/09 09:46:52;;;;;;;11.30;2.83;;;19.20;99.90;;;;;;5044961;28;20041;-57
2022/07/09 09:49:17;;;;;;;8.90;2.33;;;19.00;99.90;;;;;;5053914;28;20041;-57
2022/07/09 09:51:47;;;;;;;9.70;2.17;;;19.00;99.90;;;;;;5036877;28;20057;-56
2022/07/09 09:54:15;;;;;;;13.57;2.75;;;19.30;99.90;;;;;;5054654;28;20523;-57
2022/07/09 09:56:41;;;;;;;11.35;2.35;;;19.30;99.90;;;;;;5054658;28;20036;-57
2022/07/09 09:59:06;;;;;;;7.40;2.33;;;19.30;99.90;;;;;;5054695;28;20536;-57
2022/07/09 10:01:33;;;;;;;8.82;2.47;;;19.40;99.90;;;;;;5054738;28;20056;-56
2022/07/09 10:03:59;;;;;;;8.45;2.17;;;19.10;99.90;;;;;;5054398;28;20504;-57
2022/07/09 10:06:26;;;;;;;8.93;2.35;;;19.00;99.90;;;;;;5054349;28;20485;-58
2022/07/09 10:08:56;;;;;;;9.20;2.70;;;18.40;99.90;;;;;;5054499;28;20037;-56
2022/07/09 10:11:23;;;;;;;9.98;2.90;;;18.30;99.90;;;;;;5036759;28;20107;-56
2022/07/09 10:13:58;;;;;;;14.15;3.45;;;18.20;99.90;;;;;;5054366;28;20045;-56
2022/07/09 10:16:40;;;;;;;11.52;3.58;;;18.20;99.90;;;;;;5053990;28;20048;-56
2022/07/09 10:19:06;;;;;;;16.88;3.70;;;18.10;99.90;;;;;;5036396;28;20041;-56
2022/07/09 10:21:40;;;;;;;12.23;3.10;;;17.90;99.90;;;;;;5053432;28;20060;-55
2022/07/09 10:24:08;;;;;;;14.13;4.03;;;17.80;99.90;;;;;;5053957;28;20076;-56
2022/07/09 10:26:47;;;;;;;10.93;2.60;;;17.70;99.90;;;;;;5052814;28;20056;-56
2022/07/09 10:29:26;;;;;;;13.05;2.70;;;17.80;99.90;;;;;;5054351;28;20037;-55
2022/07/09 10:31:56;;;;;;;11.35;2.60;;;17.90;99.90;;;;;;5054253;28;20040;-55
2022/07/09 10:34:41;;;;;;;10.75;2.72;;;17.80;99.90;;;;;;5053365;28;20037;-55
2022/07/09 10:37:06;;;;;;;12.30;2.20;;;17.90;99.90;;;;;;5052924;28;20033;-55
2022/07/09 10:39:33;;;;;;;9.68;2.47;;;18.10;99.90;;;;;;5053103;28;20040;-55
2022/07/09 10:42:18;;;;;;;8.95;2.05;;;18.40;99.90;;;;;;5052632;28;20116;-55
2022/07/09 10:44:45;;;;;;;7.18;1.75;;;18.70;99.90;;;;;;5053265;28;20072;-55
2022/07/09 10:47:11;;;;;;;7.47;1.30;;;18.60;99.90;;;;;;5053072;28;20045;-55
2022/07/09 10:49:37;;;;;;;10.65;2.28;;;18.60;99.90;;;;;;5053131;28;20064;-56
2022/07/09 10:52:07;;;;;;;9.90;1.63;;;18.80;99.90;;;;;;5053036;28;20045;-56
2022/07/09 10:54:33;;;;;;;6.10;1.20;;;19.00;99.90;;;;;;5052917;28;20485;-57
2022/07/09 10:56:59;;;;;;;9.70;1.70;;;19.00;99.90;;;;;;5052906;28;20044;-57
2022/07/09 10:59:25;;;;;;;11.55;1.90;;;18.90;99.90;;;;;;5052764;28;20119;-56
2022/07/09 11:01:51;;;;;;;7.45;1.30;;;19.10;99.90;;;;;;5052618;28;20401;-57
2022/07/09 11:04:28;;;;;;;7.25;1.40;;;19.10;99.90;;;;;;5052231;28;20060;-57
2022/07/09 11:06:54;;;;;;;6.78;1.65;;;18.90;99.90;;;;;;5052339;28;20041;-57
2022/07/09 11:09:20;;;;;;;8.82;1.50;;;18.80;99.90;;;;;;5052648;28;20041;-57
2022/07/09 11:11:47;;;;;;;7.47;1.75;;;18.70;99.90;;;;;;5034342;28;20047;-57
2022/07/09 11:14:13;;;;;;;6.65;1.70;;;18.80;99.90;;;;;;5052643;28;20049;-57
2022/07/09 11:16:39;;;;;;;5.30;1.08;;;19.00;99.90;;;;;;5052635;28;20041;-57
2022/07/09 11:19:19;;;;;;;6.90;1.40;;;19.00;99.90;;;;;;5052508;28;20040;-57
2022/07/09 11:21:45;;;;;;;10.63;1.52;;;19.00;99.90;;;;;;5051657;28;20049;-57
2022/07/09 11:24:19;;;;;;;6.53;1.10;;;19.10;99.90;;;;;;5050441;28;20045;-56
2022/07/09 11:26:45;;;;;;;5.63;1.45;;;18.90;99.90;;;;;;5051768;28;20033;-58
2022/07/09 11:29:11;;;;;;;4.70;1.00;;;19.40;99.90;;;;;;5052077;28;20120;-57
2022/07/09 11:31:45;;;;;;;10.20;1.77;;;19.30;99.90;;;;;;5052498;28;20452;-57
2022/07/09 11:34:11;;;;;;;6.25;1.30;;;19.50;99.90;;;;;;5051286;28;20052;-56
2022/07/09 11:36:38;;;;;;;7.60;1.30;;;19.70;99.90;;;;;;5051577;28;20615;-55
2022/07/09 11:39:04;;;;;;;9.07;1.42;;;19.90;99.90;;;;;;5052871;28;20029;-56
2022/07/09 11:41:43;;;;;;;7.55;1.52;;;19.90;99.90;;;;;;5052633;28;20128;-57
2022/07/09 11:44:09;;;;;;;9.10;1.63;;;20.10;99.90;;;;;;5052749;28;20037;-57
2022/07/09 11:46:37;;;;;;;8.27;1.65;;;20.10;99.90;;;;;;5052824;28;20064;-56
2022/07/09 11:49:12;;;;;;;7.28;1.25;;;20.00;99.90;;;;;;5052197;28;20103;-56
2022/07/09 11:51:39;;;;;;;6.55;1.00;;;20.00;99.90;;;;;;5052524;28;20064;-56
2022/07/09 11:54:05;;;;;;;6.25;1.48;;;19.90;99.90;;;;;;5052292;28;20087;-55
2022/07/09 11:56:47;;;;;;;7.38;1.45;;;19.90;99.90;;;;;;5052105;28;20076;-56
2022/07/09 11:59:13;;;;;;;10.18;2.20;;;19.70;99.90;;;;;;5017863;28;20123;-56
2022/07/09 12:01:39;;;;;;;8.18;1.23;;;20.00;99.90;;;;;;5051942;28;20457;-55
2022/07/09 12:04:05;;;;;;;7.65;1.25;;;19.90;99.90;;;;;;5051862;28;20044;-56
2022/07/09 12:06:31;;;;;;;7.03;1.98;;;19.80;99.90;;;;;;5052066;28;20044;-56
2022/07/09 12:09:04;;;;;;;9.02;1.42;;;20.00;99.90;;;;;;5052203;28;20033;-56
2022/07/09 12:11:30;;;;;;;4.95;0.98;;;19.90;99.90;;;;;;5052347;28;20392;-56
2022/07/09 12:13:57;;;;;;;4.00;1.10;;;19.60;99.90;;;;;;5052064;28;20048;-56
2022/07/09 12:16:22;;;;;;;7.28;1.23;;;19.80;99.90;;;;;;5051486;28;20045;-56
2022/07/09 12:18:48;;;;;;;5.93;1.10;;;19.60;99.90;;;;;;5051586;28;20508;-56
2022/07/09 12:21:14;;;;;;;9.52;1.55;;;19.60;99.90;;;;;;5039916;28;20051;-56
2022/07/09 12:23:39;;;;;;;8.05;1.13;;;19.50;99.90;;;;;;5052232;28;20044;-56
2022/07/09 12:26:05;;;;;;;9.05;1.40;;;19.60;99.90;;;;;;5050672;28;20121;-57
2022/07/09 12:28:31;;;;;;;8.65;1.45;;;20.20;99.90;;;;;;5051246;28;20150;-56
2022/07/09 12:30:56;;;;;;;6.78;1.30;;;20.00;99.90;;;;;;5058464;28;20036;-56
2022/07/09 12:33:22;;;;;;;9.13;1.58;;;19.90;99.90;;;;;;5058431;28;20040;-57
2022/07/09 12:35:48;;;;;;;7.38;1.30;;;19.90;99.90;;;;;;5051462;28;20036;-56
2022/07/09 12:38:13;;;;;;;5.28;1.00;;;19.40;99.90;;;;;;5051551;28;20037;-57